createdAt,value
2022-08-29T00:02:18.548Z,17.1
2022-08-29T00:08:08.293Z,17.2
2022-08-29T00:13:18.521Z,17.1
2022-08-29T00:19:08.204Z,17.2
2022-08-29T00:24:08.236Z,17
2022-08-29T00:29:08.225Z,16.9
2022-08-29T00:34:08.242Z,16.8
2022-08-29T00:39:18.979Z,16.7
2022-08-29T00:44:18.531Z,16.7
2022-08-29T00:50:08.244Z,16.6
2022-08-29T00:55:18.517Z,16.6
2022-08-29T01:01:08.325Z,16.5
2022-08-29T01:06:18.499Z,16.3
2022-08-29T01:11:18.501Z,16.4
2022-08-29T01:16:18.554Z,16.4
2022-08-29T01:21:18.532Z,16.3
2022-08-29T01:27:08.232Z,16.3
2022-08-29T01:32:18.571Z,16.3
2022-08-29T01:38:18.499Z,16.2
2022-08-29T01:43:28.782Z,16.2
2022-08-29T01:49:08.257Z,16.2
2022-08-29T01:54:18.526Z,16
2022-08-29T01:59:18.535Z,16
2022-08-29T02:05:18.531Z,15.9
2022-08-29T02:11:08.280Z,15.8
2022-08-29T02:16:18.625Z,15.8
2022-08-29T02:22:08.254Z,15.8
2022-08-29T02:27:08.708Z,15.7
2022-08-29T02:32:18.533Z,15.5
2022-08-29T02:38:08.302Z,15.6
2022-08-29T02:43:18.521Z,15.5
2022-08-29T02:48:18.548Z,15.5
2022-08-29T02:54:08.272Z,15.6
2022-08-29T02:59:18.538Z,15.4
2022-08-29T03:05:08.252Z,15.3
2022-08-29T03:10:18.542Z,15.3
2022-08-29T03:15:28.819Z,15.3
2022-08-29T03:21:08.265Z,15.3
2022-08-29T03:26:08.317Z,15.3
2022-08-29T03:31:18.585Z,15.2
2022-08-29T03:37:08.254Z,15.3
2022-08-29T03:42:08.263Z,15.3
2022-08-29T03:47:08.263Z,15.2
2022-08-29T03:52:18.534Z,15.1
2022-08-29T03:57:18.544Z,15.1
2022-08-29T04:02:18.553Z,15.2
2022-08-29T04:08:08.990Z,15.2
2022-08-29T04:13:18.538Z,15.2
2022-08-29T04:19:08.887Z,15.2
2022-08-29T04:24:08.255Z,15
2022-08-29T04:29:18.536Z,14.9
2022-08-29T04:34:18.557Z,14.9
2022-08-29T04:39:18.549Z,14.8
2022-08-29T04:45:08.289Z,14.7
2022-08-29T04:50:18.532Z,14.5
2022-08-29T04:55:21.715Z,14.7
2022-08-29T05:00:18.540Z,14.8
2022-08-29T05:05:18.626Z,14.8
2022-08-29T05:11:08.307Z,14.8
2022-08-29T05:16:18.612Z,14.7
2022-08-29T05:21:18.549Z,14.8
2022-08-29T05:26:18.558Z,14.8
2022-08-29T05:32:08.273Z,14.8
2022-08-29T05:37:08.345Z,14.9
2022-08-29T05:42:18.550Z,15.2
2022-08-29T05:47:18.562Z,15.4
2022-08-29T05:53:08.264Z,15.8
2022-08-29T05:58:18.563Z,16.4
2022-08-29T06:03:18.758Z,17.1
2022-08-29T06:09:08.275Z,18.2
2022-08-29T06:14:08.266Z,19.4
2022-08-29T06:19:08.272Z,20.2
2022-08-29T06:24:08.289Z,20.4
2022-08-29T06:29:18.568Z,20.7
2022-08-29T06:34:18.576Z,21.2
2022-08-29T06:40:08.337Z,21.9
2022-08-29T06:45:18.573Z,22.7
2022-08-29T06:51:08.305Z,23.5
2022-08-29T06:56:11.382Z,24
2022-08-29T07:01:08.388Z,23.7
2022-08-29T07:06:18.594Z,23.5
2022-08-29T07:12:08.301Z,23
2022-08-29T07:17:08.313Z,23.1
2022-08-29T07:22:18.586Z,22.9
2022-08-29T07:28:08.349Z,22.5
2022-08-29T07:33:08.465Z,22.4
2022-08-29T07:38:08.348Z,23.3
2022-08-29T07:43:20.467Z,24.1
2022-08-29T07:49:08.309Z,25.7
2022-08-29T07:54:08.304Z,27.2
2022-08-29T07:59:18.584Z,27.3
2022-08-29T08:04:19.169Z,27.8
2022-08-29T08:09:18.621Z,28.6
2022-08-29T08:15:08.316Z,29.9
2022-08-29T08:20:08.332Z,28.5
2022-08-29T08:25:18.650Z,30.5
2022-08-29T08:31:08.407Z,30.3
2022-08-29T08:36:18.601Z,30.6
2022-08-29T08:41:18.638Z,31.5
2022-08-29T08:47:08.330Z,30.5
2022-08-29T08:52:08.342Z,30.3
2022-08-29T08:57:18.652Z,32.8
2022-08-29T09:03:08.467Z,33.5
2022-08-29T09:08:18.627Z,33
2022-08-29T09:13:18.634Z,31.8
2022-08-29T09:19:08.341Z,32.2
2022-08-29T09:24:08.351Z,31.1
2022-08-29T09:29:08.354Z,32.2
2022-08-29T09:34:18.639Z,32.6
2022-08-29T09:40:08.479Z,31.9
2022-08-29T09:45:18.661Z,33.7
2022-08-29T09:50:18.777Z,34.6
2022-08-29T09:56:08.367Z,34.6
2022-08-29T10:01:18.712Z,31.7
2022-08-29T10:07:08.355Z,33.3
2022-08-29T10:12:18.641Z,34.1
2022-08-29T10:18:08.369Z,34.2
2022-08-29T10:23:18.642Z,34.2
2022-08-29T10:28:18.652Z,33.1
2022-08-29T10:33:18.822Z,33.6
2022-08-29T10:39:08.385Z,34
2022-08-29T10:44:18.657Z,33.7
2022-08-29T10:49:18.650Z,32.8
2022-08-29T10:54:18.681Z,32.5
2022-08-29T11:00:08.384Z,32.3
2022-08-29T11:05:08.427Z,31.4
2022-08-29T11:10:18.680Z,30.5
2022-08-29T11:15:18.686Z,30.5
2022-08-29T11:21:08.429Z,30.5
2022-08-29T11:26:08.429Z,28.9
2022-08-29T11:31:18.693Z,29.8
2022-08-29T11:36:18.701Z,30.1
2022-08-29T11:42:08.577Z,30.3
2022-08-29T11:47:18.801Z,30
2022-08-29T11:52:20.345Z,28.8
2022-08-29T11:58:11.530Z,27.9
2022-08-29T12:03:27.946Z,28
2022-08-29T12:09:12.762Z,28.3
2022-08-29T12:14:18.705Z,28.5
2022-08-29T12:19:18.743Z,28
2022-08-29T12:25:08.420Z,28
2022-08-29T12:30:08.428Z,27.8
2022-08-29T12:35:18.686Z,28
2022-08-29T12:40:18.765Z,27.4
2022-08-29T12:45:18.727Z,27.3
2022-08-29T12:50:18.750Z,26.9
2022-08-29T12:56:08.436Z,26.7
2022-08-29T13:01:18.791Z,26.8
2022-08-29T13:07:08.435Z,27
2022-08-29T13:12:08.450Z,26.1
2022-08-29T13:17:18.727Z,26.4
2022-08-29T13:23:08.456Z,27
2022-08-29T13:28:18.820Z,26.5
2022-08-29T13:33:18.944Z,26.5
2022-08-29T13:39:08.451Z,26.8
2022-08-29T13:44:08.459Z,27.3
2022-08-29T13:49:18.746Z,27.5
2022-08-29T13:55:08.446Z,27.6
2022-08-29T14:00:08.490Z,27.1
2022-08-29T14:05:08.477Z,26.9
2022-08-29T14:10:18.748Z,26.7
2022-08-29T14:16:08.594Z,26.9
2022-08-29T14:21:18.740Z,27.2
2022-08-29T14:26:18.741Z,27.2
2022-08-29T14:32:08.592Z,26.8
2022-08-29T14:37:18.793Z,27.2
2022-08-29T14:43:08.502Z,27.2
2022-08-29T14:48:18.766Z,27.2
2022-08-29T14:54:08.545Z,27.3
2022-08-29T14:59:18.753Z,27.6
2022-08-29T15:05:08.455Z,27.9
2022-08-29T15:10:08.467Z,27.9
2022-08-29T15:15:08.489Z,27.9
2022-08-29T15:20:37.134Z,27.7
2022-08-29T15:25:08.546Z,28
2022-08-29T15:30:18.767Z,27.8
2022-08-29T15:35:18.782Z,27.9
2022-08-29T15:41:08.494Z,27.7
2022-08-29T15:46:18.848Z,27.6
2022-08-29T15:52:08.550Z,27.7
2022-08-29T15:57:08.505Z,27.7
2022-08-29T16:02:08.615Z,27.6
2022-08-29T16:07:08.520Z,27.7
2022-08-29T16:12:18.786Z,27.8
2022-08-29T16:18:08.531Z,27.9
2022-08-29T16:23:18.789Z,27.9
2022-08-29T16:29:08.549Z,27.7
2022-08-29T16:34:18.795Z,27.8
2022-08-29T16:39:18.811Z,27.9
2022-08-29T16:44:18.821Z,27.9
2022-08-29T16:50:08.562Z,27.8
2022-08-29T16:55:18.787Z,27.9
2022-08-29T17:00:18.807Z,27.8
2022-08-29T17:06:08.535Z,27.7
2022-08-29T17:11:08.549Z,27.6
2022-08-29T17:16:08.533Z,27.4
2022-08-29T17:21:18.791Z,27.3
2022-08-29T17:26:18.827Z,27.2
2022-08-29T17:32:08.531Z,27.1
2022-08-29T17:37:08.551Z,26.9
2022-08-29T17:42:18.894Z,26.6
2022-08-29T17:47:18.859Z,26.5
2022-08-29T17:53:08.557Z,26.2
2022-08-29T17:58:18.843Z,26
2022-08-29T18:03:18.824Z,25.8
2022-08-29T18:08:18.836Z,25.7
2022-08-29T18:14:08.547Z,25.4
2022-08-29T18:19:08.557Z,25.3
2022-08-29T18:24:18.822Z,25
2022-08-29T18:29:18.845Z,24.6
2022-08-29T18:35:08.627Z,24.5
2022-08-29T18:40:18.923Z,24.3
2022-08-29T18:46:08.672Z,24.2
2022-08-29T18:51:18.841Z,24
2022-08-29T18:56:18.840Z,23.9
2022-08-29T19:02:08.727Z,23.7
2022-08-29T19:07:08.565Z,23.6
2022-08-29T19:12:18.853Z,23.4
2022-08-29T19:18:08.621Z,23.3
2022-08-29T19:23:08.570Z,23.2
2022-08-29T19:28:08.588Z,23.1
2022-08-29T19:33:08.706Z,23
2022-08-29T19:38:18.851Z,22.8
2022-08-29T19:43:19.220Z,22.7
2022-08-29T19:49:08.584Z,22.4
2022-08-29T19:54:08.599Z,22.4
2022-08-29T19:59:18.869Z,22.3
2022-08-29T20:04:18.869Z,22.2
2022-08-29T20:14:18.881Z,22.1
2022-08-29T20:20:08.597Z,22
2022-08-29T20:25:08.598Z,21.9
2022-08-29T20:30:18.883Z,21.9
2022-08-29T20:36:08.607Z,21.6
2022-08-29T20:41:21.120Z,21.4
2022-08-29T20:47:08.600Z,21.5
2022-08-29T20:52:18.881Z,21.7
2022-08-29T20:58:08.600Z,21.2
2022-08-29T21:03:08.699Z,21.2
2022-08-29T21:08:18.888Z,21.4
2022-08-29T21:13:18.904Z,21.4
2022-08-29T21:18:20.253Z,21.4
2022-08-29T21:23:18.928Z,21.5
2022-08-29T21:28:18.951Z,21.3
2022-08-29T21:34:08.602Z,21.1
2022-08-29T21:39:08.630Z,21.1
2022-08-29T21:44:18.906Z,20.7
2022-08-29T21:49:18.898Z,20.6
2022-08-29T21:54:18.899Z,20.6
2022-08-29T22:00:08.635Z,20.2
2022-08-29T22:05:18.908Z,20.3
2022-08-29T22:10:18.940Z,20.3
2022-08-29T22:16:08.682Z,20.5
2022-08-29T22:21:18.908Z,20.6
2022-08-29T22:26:18.919Z,20.6
2022-08-29T22:32:08.789Z,20.7
2022-08-29T22:37:18.912Z,20.6
2022-08-29T22:42:18.963Z,20.7
2022-08-29T22:48:08.631Z,20.8
2022-08-29T22:53:18.916Z,20.6
2022-08-29T22:58:18.931Z,20.5
2022-08-29T23:03:19.242Z,20.5
2022-08-29T23:09:08.617Z,20.4
2022-08-29T23:14:20.722Z,20.6
2022-08-29T23:20:08.670Z,20.5
2022-08-29T23:25:18.917Z,20.4
2022-08-29T23:30:19.164Z,20.4
2022-08-29T23:36:08.720Z,20.4
2022-08-29T23:41:18.912Z,20.5
2022-08-29T23:47:08.717Z,20.4
2022-08-29T23:52:18.948Z,20.2
2022-08-29T23:58:08.628Z,20.3
